sensor_id;sensor_type;location;lat;lon;timestamp;pressure;altitude;pressure_sealevel;temperature;humidity
40730;BME280;26418;50.070;8.436;2022-09-21T02:53:06;100917.84;;;7.93;85.78
40730;BME280;26418;50.070;8.436;2022-09-21T03:00:05;100915.06;;;7.83;85.66
40730;BME280;26418;50.070;8.436;2022-09-21T04:18:54;100923.88;;;7.18;86.57
40730;BME280;26418;50.070;8.436;2022-09-21T04:32:39;100951.78;;;7.34;86.52
40730;BME280;26418;50.070;8.436;2022-09-21T04:52:43;100943.16;;;7.10;87.19
40730;BME280;26418;50.070;8.436;2022-09-21T05:23:10;100990.41;;;7.01;88.00
40730;BME280;26418;50.070;8.436;2022-09-21T05:30:07;100990.50;;;7.11;87.43
40730;BME280;26418;50.070;8.436;2022-09-21T05:56:55;100979.53;;;7.13;85.86
40730;BME280;26418;50.070;8.436;2022-09-21T06:05:25;101012.34;;;7.37;86.31
40730;BME280;26418;50.070;8.436;2022-09-21T06:07:50;101017.25;;;7.40;86.47
40730;BME280;26418;50.070;8.436;2022-09-21T06:10:16;101023.50;;;7.46;85.92
40730;BME280;26418;50.070;8.436;2022-09-21T06:12:42;101015.19;;;7.52;85.60
40730;BME280;26418;50.070;8.436;2022-09-21T06:15:11;101021.47;;;7.58;85.51
40730;BME280;26418;50.070;8.436;2022-09-21T06:17:37;101025.28;;;7.62;85.64
40730;BME280;26418;50.070;8.436;2022-09-21T06:20:02;101020.44;;;7.64;85.75
40730;BME280;26418;50.070;8.436;2022-09-21T06:22:28;101025.94;;;7.75;85.30
40730;BME280;26418;50.070;8.436;2022-09-21T06:24:54;101028.13;;;7.78;85.11
40730;BME280;26418;50.070;8.436;2022-09-21T06:27:19;101031.09;;;7.76;85.10
40730;BME280;26418;50.070;8.436;2022-09-21T06:29:44;101028.06;;;7.72;85.38
40730;BME280;26418;50.070;8.436;2022-09-21T06:32:10;101028.44;;;7.81;87.55
40730;BME280;26418;50.070;8.436;2022-09-21T06:34:35;101027.81;;;8.01;86.93
40730;BME280;26418;50.070;8.436;2022-09-21T06:37:02;101025.22;;;8.12;84.87
40730;BME280;26418;50.070;8.436;2022-09-21T06:39:27;101029.31;;;8.19;84.06
40730;BME280;26418;50.070;8.436;2022-09-21T06:41:53;101028.78;;;8.17;83.77
40730;BME280;26418;50.070;8.436;2022-09-21T06:44:19;101032.84;;;8.20;84.11
40730;BME280;26418;50.070;8.436;2022-09-21T06:46:44;101022.38;;;8.29;83.72
40730;BME280;26418;50.070;8.436;2022-09-21T06:49:09;101038.63;;;8.34;83.63
40730;BME280;26418;50.070;8.436;2022-09-21T06:56:46;100983.00;;;8.23;83.39
40730;BME280;26418;50.070;8.436;2022-09-21T06:59:11;100994.94;;;8.32;82.95
40730;BME280;26418;50.070;8.436;2022-09-21T07:01:37;100977.13;;;8.31;83.20
40730;BME280;26418;50.070;8.436;2022-09-21T07:04:03;100995.84;;;8.48;83.08
40730;BME280;26418;50.070;8.436;2022-09-21T07:06:28;101005.66;;;8.59;82.62
40730;BME280;26418;50.070;8.436;2022-09-21T07:08:55;101004.94;;;8.74;82.18
40730;BME280;26418;50.070;8.436;2022-09-21T07:11:21;101000.13;;;8.81;81.95
40730;BME280;26418;50.070;8.436;2022-09-21T07:13:48;100995.28;;;8.89;81.34
40730;BME280;26418;50.070;8.436;2022-09-21T07:16:14;100994.78;;;8.97;80.48
40730;BME280;26418;50.070;8.436;2022-09-21T07:18:40;101002.09;;;9.02;79.87
40730;BME280;26418;50.070;8.436;2022-09-21T07:21:08;101023.28;;;9.31;80.37
40730;BME280;26418;50.070;8.436;2022-09-21T07:23:34;101016.53;;;9.33;80.51
40730;BME280;26418;50.070;8.436;2022-09-21T07:26:01;101003.59;;;9.40;80.19
40730;BME280;26418;50.070;8.436;2022-09-21T07:28:27;101008.50;;;9.49;79.88
40730;BME280;26418;50.070;8.436;2022-09-21T07:30:53;101010.41;;;9.64;79.75
40730;BME280;26418;50.070;8.436;2022-09-21T07:33:18;101033.44;;;9.92;79.96
40730;BME280;26418;50.070;8.436;2022-09-21T07:35:51;101046.94;;;10.13;79.84
40730;BME280;26418;50.070;8.436;2022-09-21T07:38:17;101038.84;;;10.23;79.15
40730;BME280;26418;50.070;8.436;2022-09-21T07:40:42;101038.31;;;10.31;78.63
40730;BME280;26418;50.070;8.436;2022-09-21T07:43:07;101038.34;;;10.42;77.93
40730;BME280;26418;50.070;8.436;2022-09-21T07:45:33;101034.53;;;10.48;77.08
40730;BME280;26418;50.070;8.436;2022-09-21T07:48:05;101034.28;;;10.54;75.85
40730;BME280;26418;50.070;8.436;2022-09-21T07:50:31;101030.75;;;10.54;76.20
40730;BME280;26418;50.070;8.436;2022-09-21T07:52:58;101039.41;;;10.61;76.28
40730;BME280;26418;50.070;8.436;2022-09-21T07:55:23;101044.53;;;10.63;75.96
40730;BME280;26418;50.070;8.436;2022-09-21T07:57:49;101038.88;;;10.69;76.38
40730;BME280;26418;50.070;8.436;2022-09-21T08:00:32;101042.06;;;10.82;76.31
40730;BME280;26418;50.070;8.436;2022-09-21T08:02:59;101040.41;;;11.01;75.89
40730;BME280;26418;50.070;8.436;2022-09-21T08:05:25;101041.19;;;11.12;73.49
40730;BME280;26418;50.070;8.436;2022-09-21T08:07:54;101036.56;;;11.13;74.07
40730;BME280;26418;50.070;8.436;2022-09-21T08:10:19;101035.72;;;11.23;73.64
40730;BME280;26418;50.070;8.436;2022-09-21T08:12:45;101042.22;;;11.16;73.33
40730;BME280;26418;50.070;8.436;2022-09-21T08:15:10;101028.72;;;11.11;74.24
40730;BME280;26418;50.070;8.436;2022-09-21T08:17:37;101047.34;;;11.28;73.52
40730;BME280;26418;50.070;8.436;2022-09-21T08:20:03;101036.78;;;11.27;73.43
40730;BME280;26418;50.070;8.436;2022-09-21T08:22:28;101045.16;;;11.30;73.83
40730;BME280;26418;50.070;8.436;2022-09-21T08:24:53;101048.66;;;11.36;73.98
40730;BME280;26418;50.070;8.436;2022-09-21T08:27:20;101041.28;;;11.47;74.00
40730;BME280;26418;50.070;8.436;2022-09-21T08:29:45;101048.53;;;11.62;73.89
40730;BME280;26418;50.070;8.436;2022-09-21T08:32:11;101046.56;;;11.73;73.58
40730;BME280;26418;50.070;8.436;2022-09-21T08:34:36;101035.97;;;11.82;72.70
40730;BME280;26418;50.070;8.436;2022-09-21T08:37:01;101028.38;;;11.78;72.07
40730;BME280;26418;50.070;8.436;2022-09-21T08:39:27;101047.22;;;12.04;71.51
40730;BME280;26418;50.070;8.436;2022-09-21T08:44:50;101047.81;;;12.31;71.01
40730;BME280;26418;50.070;8.436;2022-09-21T08:47:33;101049.03;;;12.49;69.90
40730;BME280;26418;50.070;8.436;2022-09-21T08:50:02;101035.84;;;12.66;69.93
40730;BME280;26418;50.070;8.436;2022-09-21T08:52:28;101034.00;;;12.86;68.59
40730;BME280;26418;50.070;8.436;2022-09-21T08:54:58;101026.84;;;12.95;67.73
40730;BME280;26418;50.070;8.436;2022-09-21T08:57:28;101016.56;;;13.16;67.63
40730;BME280;26418;50.070;8.436;2022-09-21T08:59:54;101029.84;;;13.42;65.48
40730;BME280;26418;50.070;8.436;2022-09-21T09:13:38;101039.22;;;14.73;62.71
40730;BME280;26418;50.070;8.436;2022-09-21T09:16:32;101030.09;;;14.97;60.52
40730;BME280;26418;50.070;8.436;2022-09-21T09:21:48;101027.13;;;15.21;59.18
40730;BME280;26418;50.070;8.436;2022-09-21T09:24:41;101032.97;;;15.43;58.81
40730;BME280;26418;50.070;8.436;2022-09-21T09:30:04;101020.56;;;15.73;58.12
40730;BME280;26418;50.070;8.436;2022-09-21T09:32:39;101020.59;;;15.96;57.40
40730;BME280;26418;50.070;8.436;2022-09-21T09:35:24;101014.31;;;16.09;55.87
40730;BME280;26418;50.070;8.436;2022-09-21T09:37:54;101007.72;;;16.10;54.79
40730;BME280;26418;50.070;8.436;2022-09-21T09:40:43;101014.59;;;16.30;54.64
40730;BME280;26418;50.070;8.436;2022-09-21T09:51:18;100999.97;;;16.98;52.92
40730;BME280;26418;50.070;8.436;2022-09-21T09:53:43;100989.69;;;16.95;52.71
40730;BME280;26418;50.070;8.436;2022-09-21T09:56:10;100998.56;;;17.18;51.95
40730;BME280;26418;50.070;8.436;2022-09-21T09:58:50;100997.31;;;17.42;51.20
40730;BME280;26418;50.070;8.436;2022-09-21T10:01:40;100993.16;;;17.53;50.95
40730;BME280;26418;50.070;8.436;2022-09-21T10:04:10;100985.56;;;17.68;49.29
40730;BME280;26418;50.070;8.436;2022-09-21T10:06:36;100991.22;;;17.80;48.56
40730;BME280;26418;50.070;8.436;2022-09-21T10:09:27;100997.34;;;17.86;49.49
40730;BME280;26418;50.070;8.436;2022-09-21T10:11:57;100988.47;;;17.89;48.87
40730;BME280;26418;50.070;8.436;2022-09-21T10:14:26;100990.56;;;18.01;47.89
40730;BME280;26418;50.070;8.436;2022-09-21T10:19:25;100983.66;;;18.03;48.70
40730;BME280;26418;50.070;8.436;2022-09-21T10:21:55;100985.88;;;18.19;47.68
40730;BME280;26418;50.070;8.436;2022-09-21T10:26:54;100994.00;;;18.54;46.67
40730;BME280;26418;50.070;8.436;2022-09-21T10:31:54;100987.94;;;18.31;46.64
40730;BME280;26418;50.070;8.436;2022-09-21T10:34:21;100965.34;;;18.43;46.37
40730;BME280;26418;50.070;8.436;2022-09-21T10:36:52;100985.31;;;18.43;46.08
40730;BME280;26418;50.070;8.436;2022-09-21T10:39:33;100980.16;;;18.50;46.80
40730;BME280;26418;50.070;8.436;2022-09-21T10:42:06;100979.41;;;18.71;46.47
40730;BME280;26418;50.070;8.436;2022-09-21T10:44:44;100968.94;;;19.03;45.56
40730;BME280;26418;50.070;8.436;2022-09-21T10:47:21;100971.53;;;19.29;44.58
40730;BME280;26418;50.070;8.436;2022-09-21T10:49:59;100969.31;;;19.23;44.60
40730;BME280;26418;50.070;8.436;2022-09-21T10:52:36;100965.03;;;19.34;45.47
40730;BME280;26418;50.070;8.436;2022-09-21T10:55:03;100965.00;;;19.76;44.21
40730;BME280;26418;50.070;8.436;2022-09-21T10:57:31;100962.69;;;20.00;43.70
40730;BME280;26418;50.070;8.436;2022-09-21T10:59:57;100950.91;;;19.99;42.72
40730;BME280;26418;50.070;8.436;2022-09-21T11:02:34;100955.56;;;20.32;43.23
40730;BME280;26418;50.070;8.436;2022-09-21T11:07:40;100955.91;;;20.43;41.69
40730;BME280;26418;50.070;8.436;2022-09-21T11:10:50;100961.97;;;20.49;41.20
40730;BME280;26418;50.070;8.436;2022-09-21T11:13:54;100964.50;;;20.54;40.99
40730;BME280;26418;50.070;8.436;2022-09-21T11:16:30;100951.66;;;20.70;41.36
40730;BME280;26418;50.070;8.436;2022-09-21T11:19:09;100945.13;;;21.12;41.02
40730;BME280;26418;50.070;8.436;2022-09-21T11:21:53;100949.66;;;21.33;39.98
40730;BME280;26418;50.070;8.436;2022-09-21T11:27:10;100947.72;;;21.21;38.97
40730;BME280;26418;50.070;8.436;2022-09-21T11:34:51;100939.31;;;21.42;39.47
40730;BME280;26418;50.070;8.436;2022-09-21T11:37:39;100933.09;;;21.45;38.98
40730;BME280;26418;50.070;8.436;2022-09-21T11:40:35;100937.03;;;21.73;38.82
40730;BME280;26418;50.070;8.436;2022-09-21T11:51:43;100930.72;;;21.44;37.97
40730;BME280;26418;50.070;8.436;2022-09-21T11:59:28;100930.47;;;20.34;38.98
40730;BME280;26418;50.070;8.436;2022-09-21T12:16:04;100914.66;;;20.06;39.64
40730;BME280;26418;50.070;8.436;2022-09-21T12:18:38;100916.38;;;20.10;39.73
40730;BME280;26418;50.070;8.436;2022-09-21T12:21:21;100909.53;;;20.17;38.74
40730;BME280;26418;50.070;8.436;2022-09-21T12:24:04;100921.66;;;20.28;38.44
40730;BME280;26418;50.070;8.436;2022-09-21T12:26:42;100904.06;;;20.41;37.37
40730;BME280;26418;50.070;8.436;2022-09-21T12:29:46;100907.50;;;20.51;37.86
40730;BME280;26418;50.070;8.436;2022-09-21T12:35:21;100907.59;;;20.30;36.18
40730;BME280;26418;50.070;8.436;2022-09-21T12:38:12;100911.84;;;20.27;36.85
40730;BME280;26418;50.070;8.436;2022-09-21T12:40:57;100904.28;;;20.24;36.86
40730;BME280;26418;50.070;8.436;2022-09-21T12:43:36;100900.38;;;20.25;36.90
40730;BME280;26418;50.070;8.436;2022-09-21T12:46:16;100899.22;;;20.14;36.06
40730;BME280;26418;50.070;8.436;2022-09-21T12:48:43;100904.50;;;20.19;37.36
40730;BME280;26418;50.070;8.436;2022-09-21T12:53:51;100875.81;;;19.83;39.36
40730;BME280;26418;50.070;8.436;2022-09-21T12:56:23;100905.72;;;19.97;39.06
40730;BME280;26418;50.070;8.436;2022-09-21T13:04:58;100884.50;;;19.51;38.21
40730;BME280;26418;50.070;8.436;2022-09-21T13:07:37;100885.78;;;19.54;38.22
40730;BME280;26418;50.070;8.436;2022-09-21T13:10:18;100881.00;;;19.63;38.06
40730;BME280;26418;50.070;8.436;2022-09-21T13:12:52;100875.47;;;19.84;37.48
40730;BME280;26418;50.070;8.436;2022-09-21T13:15:27;100885.09;;;19.90;38.32
40730;BME280;26418;50.070;8.436;2022-09-21T13:17:58;100872.19;;;19.91;38.59
40730;BME280;26418;50.070;8.436;2022-09-21T13:20:24;100870.31;;;19.83;38.44
40730;BME280;26418;50.070;8.436;2022-09-21T13:22:57;100869.59;;;19.73;39.14
40730;BME280;26418;50.070;8.436;2022-09-21T13:25:26;100872.22;;;19.70;39.03
40730;BME280;26418;50.070;8.436;2022-09-21T13:30:29;100874.97;;;19.36;39.01
40730;BME280;26418;50.070;8.436;2022-09-21T13:32:57;100871.66;;;19.30;39.48
40730;BME280;26418;50.070;8.436;2022-09-21T13:35:54;100870.91;;;19.21;39.25
40730;BME280;26418;50.070;8.436;2022-09-21T13:41:23;100866.44;;;19.16;38.88
40730;BME280;26418;50.070;8.436;2022-09-21T13:49:02;100866.44;;;18.95;37.34
40730;BME280;26418;50.070;8.436;2022-09-21T13:51:33;100862.88;;;18.95;37.48
40730;BME280;26418;50.070;8.436;2022-09-21T13:54:00;100858.44;;;18.81;38.39
40730;BME280;26418;50.070;8.436;2022-09-21T13:56:27;100853.00;;;18.73;38.20
40730;BME280;26418;50.070;8.436;2022-09-21T13:58:55;100847.09;;;18.70;38.27
40730;BME280;26418;50.070;8.436;2022-09-21T14:01:39;100847.97;;;18.53;39.88
40730;BME280;26418;50.070;8.436;2022-09-21T14:04:17;100848.06;;;18.36;39.88
40730;BME280;26418;50.070;8.436;2022-09-21T14:06:47;100845.41;;;18.27;40.38
40730;BME280;26418;50.070;8.436;2022-09-21T14:09:26;100845.97;;;18.12;40.34
40730;BME280;26418;50.070;8.436;2022-09-21T14:12:00;100846.75;;;18.12;39.60
40730;BME280;26418;50.070;8.436;2022-09-21T14:14:36;100844.50;;;18.05;40.07
40730;BME280;26418;50.070;8.436;2022-09-21T14:17:38;100845.19;;;18.02;40.37
40730;BME280;26418;50.070;8.436;2022-09-21T14:20:05;100819.47;;;17.86;40.08
40730;BME280;26418;50.070;8.436;2022-09-21T14:23:25;100841.19;;;18.00;39.88
40730;BME280;26418;50.070;8.436;2022-09-21T14:25:56;100827.81;;;17.89;39.87
40730;BME280;26418;50.070;8.436;2022-09-21T14:28:57;100837.94;;;17.89;40.23
40730;BME280;26418;50.070;8.436;2022-09-21T14:31:32;100837.66;;;17.82;39.65
40730;BME280;26418;50.070;8.436;2022-09-21T14:34:01;100824.94;;;17.77;39.87
40730;BME280;26418;50.070;8.436;2022-09-21T14:36:36;100839.75;;;17.85;40.19
40730;BME280;26418;50.070;8.436;2022-09-21T14:39:14;100825.72;;;17.86;39.65
40730;BME280;26418;50.070;8.436;2022-09-21T14:41:41;100821.56;;;17.80;40.16
40730;BME280;26418;50.070;8.436;2022-09-21T14:44:19;100821.38;;;17.85;39.89
40730;BME280;26418;50.070;8.436;2022-09-21T14:52:43;100818.06;;;17.71;40.22
40730;BME280;26418;50.070;8.436;2022-09-21T14:58:31;100812.81;;;17.48;39.71
40730;BME280;26418;50.070;8.436;2022-09-21T15:07:02;100798.31;;;17.56;40.43
40730;BME280;26418;50.070;8.436;2022-09-21T15:10:25;100791.53;;;17.63;41.32
40730;BME280;26418;50.070;8.436;2022-09-21T15:18:48;100786.72;;;18.07;40.09
40730;BME280;26418;50.070;8.436;2022-09-21T15:21:26;100795.69;;;18.16;41.22
40730;BME280;26418;50.070;8.436;2022-09-21T15:23:54;100782.00;;;18.16;41.11
40730;BME280;26418;50.070;8.436;2022-09-21T15:26:21;100789.53;;;18.19;41.75
40730;BME280;26418;50.070;8.436;2022-09-21T15:28:52;100787.34;;;18.13;42.02
40730;BME280;26418;50.070;8.436;2022-09-21T15:31:19;100797.66;;;18.07;42.45
40730;BME280;26418;50.070;8.436;2022-09-21T15:33:45;100794.66;;;18.00;42.69
40730;BME280;26418;50.070;8.436;2022-09-21T15:36:23;100786.63;;;17.86;42.72
40730;BME280;26418;50.070;8.436;2022-09-21T15:38:52;100792.94;;;17.78;43.35
40730;BME280;26418;50.070;8.436;2022-09-21T15:41:42;100798.28;;;17.65;43.71
40730;BME280;26418;50.070;8.436;2022-09-21T15:44:23;100797.69;;;17.51;44.35
40730;BME280;26418;50.070;8.436;2022-09-21T15:46:52;100789.31;;;17.38;44.93
40730;BME280;26418;50.070;8.436;2022-09-21T15:49:22;100796.13;;;17.23;45.16
40730;BME280;26418;50.070;8.436;2022-09-21T15:51:57;100792.28;;;17.07;45.73
40730;BME280;26418;50.070;8.436;2022-09-21T15:56:58;100793.06;;;16.72;46.47
40730;BME280;26418;50.070;8.436;2022-09-21T15:59:24;100794.00;;;16.59;47.01
40730;BME280;26418;50.070;8.436;2022-09-21T16:01:53;100786.59;;;16.42;47.42
40730;BME280;26418;50.070;8.436;2022-09-21T16:04:24;100794.59;;;16.29;47.73
40730;BME280;26418;50.070;8.436;2022-09-21T16:07:29;100784.44;;;16.12;48.01
40730;BME280;26418;50.070;8.436;2022-09-21T16:09:55;100788.25;;;16.02;48.62
40730;BME280;26418;50.070;8.436;2022-09-21T16:12:33;100792.09;;;15.93;48.82
40730;BME280;26418;50.070;8.436;2022-09-21T16:15:24;100791.91;;;15.89;49.05
40730;BME280;26418;50.070;8.436;2022-09-21T16:18:05;100788.81;;;15.82;48.95
40730;BME280;26418;50.070;8.436;2022-09-21T16:20:43;100795.75;;;15.88;49.05
40730;BME280;26418;50.070;8.436;2022-09-21T16:23:21;100792.53;;;15.86;48.97
40730;BME280;26418;50.070;8.436;2022-09-21T16:25:55;100789.31;;;15.84;48.94
40730;BME280;26418;50.070;8.436;2022-09-21T16:28:39;100786.38;;;15.80;48.78
40730;BME280;26418;50.070;8.436;2022-09-21T16:31:29;100793.25;;;15.78;48.96
40730;BME280;26418;50.070;8.436;2022-09-21T16:33:58;100790.03;;;15.76;49.33
40730;BME280;26418;50.070;8.436;2022-09-21T16:38:59;100789.38;;;15.70;49.61
40730;BME280;26418;50.070;8.436;2022-09-21T16:41:36;100782.44;;;15.64;49.53
40730;BME280;26418;50.070;8.436;2022-09-21T16:44:05;100791.28;;;15.61;49.49
40730;BME280;26418;50.070;8.436;2022-09-21T16:46:33;100795.22;;;15.54;49.81
40730;BME280;26418;50.070;8.436;2022-09-21T16:48:59;100797.28;;;15.49;50.28
40730;BME280;26418;50.070;8.436;2022-09-21T16:51:25;100795.31;;;15.40;50.52
40730;BME280;26418;50.070;8.436;2022-09-21T16:53:52;100799.78;;;15.36;50.55
40730;BME280;26418;50.070;8.436;2022-09-21T16:56:18;100790.25;;;15.25;50.63
40730;BME280;26418;50.070;8.436;2022-09-21T16:58:44;100803.88;;;15.25;50.88
40730;BME280;26418;50.070;8.436;2022-09-21T17:01:17;100811.66;;;15.18;51.01
40730;BME280;26418;50.070;8.436;2022-09-21T17:03:45;100802.03;;;15.12;51.25
40730;BME280;26418;50.070;8.436;2022-09-21T17:06:19;100799.72;;;15.05;51.50
40730;BME280;26418;50.070;8.436;2022-09-21T17:08:47;100809.13;;;14.99;51.75
40730;BME280;26418;50.070;8.436;2022-09-21T17:11:16;100793.66;;;14.85;51.96
40730;BME280;26418;50.070;8.436;2022-09-21T17:13:47;100793.94;;;14.84;52.62
40730;BME280;26418;50.070;8.436;2022-09-21T17:16:13;100808.84;;;14.86;53.02
40730;BME280;26418;50.070;8.436;2022-09-21T17:18:47;100805.03;;;14.87;53.65
40730;BME280;26418;50.070;8.436;2022-09-21T17:21:13;100809.16;;;14.85;53.98
40730;BME280;26418;50.070;8.436;2022-09-21T17:23:39;100810.28;;;14.84;54.30
40730;BME280;26418;50.070;8.436;2022-09-21T17:26:13;100805.56;;;14.75;54.75
40730;BME280;26418;50.070;8.436;2022-09-21T17:28:42;100807.91;;;14.68;55.54
40730;BME280;26418;50.070;8.436;2022-09-21T17:31:13;100812.13;;;14.60;55.67
40730;BME280;26418;50.070;8.436;2022-09-21T17:33:41;100806.59;;;14.52;56.21
40730;BME280;26418;50.070;8.436;2022-09-21T17:36:12;100809.25;;;14.43;56.74
40730;BME280;26418;50.070;8.436;2022-09-21T17:38:38;100816.97;;;14.36;57.59
40730;BME280;26418;50.070;8.436;2022-09-21T17:41:08;100817.41;;;14.29;58.16
40730;BME280;26418;50.070;8.436;2022-09-21T17:43:53;100824.75;;;14.28;58.19
40730;BME280;26418;50.070;8.436;2022-09-21T17:49:04;100817.91;;;14.17;58.33
40730;BME280;26418;50.070;8.436;2022-09-21T17:51:30;100811.47;;;14.13;58.55
40730;BME280;26418;50.070;8.436;2022-09-21T17:54:15;100820.53;;;14.08;58.47
40730;BME280;26418;50.070;8.436;2022-09-21T17:56:52;100825.44;;;14.06;58.55
40730;BME280;26418;50.070;8.436;2022-09-21T17:59:33;100819.72;;;13.94;58.64
40730;BME280;26418;50.070;8.436;2022-09-21T18:02:00;100837.66;;;13.95;58.78
40730;BME280;26418;50.070;8.436;2022-09-21T18:04:28;100825.34;;;13.83;58.92
40730;BME280;26418;50.070;8.436;2022-09-21T18:06:55;100839.13;;;13.87;59.22
40730;BME280;26418;50.070;8.436;2022-09-21T18:09:21;100838.94;;;13.83;59.49
40730;BME280;26418;50.070;8.436;2022-09-21T18:25:44;100853.19;;;13.61;60.52
40730;BME280;26418;50.070;8.436;2022-09-21T18:30:46;100850.13;;;13.49;60.94
40730;BME280;26418;50.070;8.436;2022-09-21T18:33:27;100854.53;;;13.45;60.98
40730;BME280;26418;50.070;8.436;2022-09-21T18:44:36;100866.81;;;13.42;61.46
40730;BME280;26418;50.070;8.436;2022-09-21T18:47:06;100870.03;;;13.44;61.58
40730;BME280;26418;50.070;8.436;2022-09-21T18:49:47;100864.41;;;13.41;61.43
40730;BME280;26418;50.070;8.436;2022-09-21T18:54:42;100869.06;;;13.35;61.59
40730;BME280;26418;50.070;8.436;2022-09-21T18:57:12;100863.19;;;13.28;61.79
40730;BME280;26418;50.070;8.436;2022-09-21T18:59:39;100859.84;;;13.17;61.93
40730;BME280;26418;50.070;8.436;2022-09-21T19:02:15;100861.72;;;13.16;62.42
40730;BME280;26418;50.070;8.436;2022-09-21T19:04:42;100847.81;;;13.04;62.83
40730;BME280;26418;50.070;8.436;2022-09-21T19:10:35;100861.97;;;13.01;63.31
40730;BME280;26418;50.070;8.436;2022-09-21T19:19:07;100872.38;;;12.94;63.57
40730;BME280;26418;50.070;8.436;2022-09-21T19:32:51;100876.97;;;12.74;63.50
40730;BME280;26418;50.070;8.436;2022-09-21T19:37:52;100873.25;;;12.70;63.79
40730;BME280;26418;50.070;8.436;2022-09-21T19:46:22;100865.88;;;12.51;64.20
40730;BME280;26418;50.070;8.436;2022-09-21T19:48:52;100867.03;;;12.45;64.59
40730;BME280;26418;50.070;8.436;2022-09-21T19:53:59;100861.41;;;12.36;65.00
40730;BME280;26418;50.070;8.436;2022-09-21T19:56:47;100871.50;;;12.31;65.28
40730;BME280;26418;50.070;8.436;2022-09-21T19:59:31;100864.31;;;12.21;64.93
40730;BME280;26418;50.070;8.436;2022-09-21T20:02:30;100857.13;;;12.06;64.67
40730;BME280;26418;50.070;8.436;2022-09-21T20:05:45;100866.94;;;12.02;64.57
40730;BME280;26418;50.070;8.436;2022-09-21T20:11:40;100859.72;;;11.92;64.98
40730;BME280;26418;50.070;8.436;2022-09-21T20:16:55;100858.31;;;11.94;65.54
40730;BME280;26418;50.070;8.436;2022-09-21T20:19:36;100859.13;;;11.95;65.43
40730;BME280;26418;50.070;8.436;2022-09-21T20:24:58;100857.00;;;11.92;65.69
40730;BME280;26418;50.070;8.436;2022-09-21T20:29:51;100853.59;;;11.76;66.20
40730;BME280;26418;50.070;8.436;2022-09-21T20:32:16;100846.72;;;11.59;66.38
40730;BME280;26418;50.070;8.436;2022-09-21T20:34:42;100861.06;;;11.60;66.66
40730;BME280;26418;50.070;8.436;2022-09-21T20:37:11;100863.28;;;11.53;67.07
40730;BME280;26418;50.070;8.436;2022-09-21T20:39:38;100864.09;;;11.53;67.24
40730;BME280;26418;50.070;8.436;2022-09-21T20:42:03;100851.47;;;11.38;67.37
40730;BME280;26418;50.070;8.436;2022-09-21T20:44:30;100865.81;;;11.39;67.99
40730;BME280;26418;50.070;8.436;2022-09-21T20:46:55;100856.13;;;11.32;68.42
40730;BME280;26418;50.070;8.436;2022-09-21T20:49:21;100859.97;;;11.21;68.41
40730;BME280;26418;50.070;8.436;2022-09-21T20:51:46;100870.03;;;11.21;68.59
40730;BME280;26418;50.070;8.436;2022-09-21T20:54:13;100856.00;;;11.13;68.43
40730;BME280;26418;50.070;8.436;2022-09-21T20:56:38;100857.38;;;11.11;68.63
40730;BME280;26418;50.070;8.436;2022-09-21T20:59:04;100854.72;;;11.00;68.73
40730;BME280;26418;50.070;8.436;2022-09-21T21:01:29;100857.13;;;11.07;69.14
40730;BME280;26418;50.070;8.436;2022-09-21T21:03:55;100860.41;;;10.99;68.96
40730;BME280;26418;50.070;8.436;2022-09-21T21:06:26;100865.28;;;10.97;68.98
40730;BME280;26418;50.070;8.436;2022-09-21T21:08:51;100862.88;;;10.90;69.46
40730;BME280;26418;50.070;8.436;2022-09-21T21:11:17;100862.09;;;10.90;69.72
40730;BME280;26418;50.070;8.436;2022-09-21T21:13:44;100862.34;;;10.88;69.90
40730;BME280;26418;50.070;8.436;2022-09-21T21:16:11;100846.19;;;10.78;69.78
40730;BME280;26418;50.070;8.436;2022-09-21T21:18:38;100851.31;;;10.79;70.03
40730;BME280;26418;50.070;8.436;2022-09-21T21:21:04;100861.31;;;10.79;70.18
40730;BME280;26418;50.070;8.436;2022-09-21T21:23:30;100856.72;;;10.79;70.23
40730;BME280;26418;50.070;8.436;2022-09-21T21:25:56;100860.47;;;10.83;70.07
40730;BME280;26418;50.070;8.436;2022-09-21T21:28:27;100856.19;;;10.82;69.63
40730;BME280;26418;50.070;8.436;2022-09-21T21:30:53;100860.22;;;10.85;69.53
40730;BME280;26418;50.070;8.436;2022-09-21T21:33:19;100856.72;;;10.79;69.30
40730;BME280;26418;50.070;8.436;2022-09-21T21:35:44;100856.19;;;10.77;69.49
40730;BME280;26418;50.070;8.436;2022-09-21T21:38:10;100848.09;;;10.72;69.13
40730;BME280;26418;50.070;8.436;2022-09-21T21:40:37;100863.47;;;10.82;69.37
40730;BME280;26418;50.070;8.436;2022-09-21T21:43:03;100853.47;;;10.82;69.03
40730;BME280;26418;50.070;8.436;2022-09-21T21:45:29;100861.84;;;10.81;68.67
40730;BME280;26418;50.070;8.436;2022-09-21T21:47:54;100860.50;;;10.78;68.85
40730;BME280;26418;50.070;8.436;2022-09-21T21:50:20;100861.63;;;10.72;68.97
40730;BME280;26418;50.070;8.436;2022-09-21T21:52:45;100865.72;;;10.69;69.08
40730;BME280;26418;50.070;8.436;2022-09-21T21:55:11;100847.34;;;10.61;69.01
40730;BME280;26418;50.070;8.436;2022-09-21T21:57:36;100860.84;;;10.66;69.34
40730;BME280;26418;50.070;8.436;2022-09-21T22:00:03;100848.94;;;10.62;69.37
40730;BME280;26418;50.070;8.436;2022-09-21T22:02:30;100861.88;;;10.70;69.10
40730;BME280;26418;50.070;8.436;2022-09-21T22:04:56;100860.56;;;10.73;69.08
40730;BME280;26418;50.070;8.436;2022-09-21T22:07:21;100857.59;;;10.64;69.25
40730;BME280;26418;50.070;8.436;2022-09-21T22:09:47;100857.09;;;10.57;69.68
40730;BME280;26418;50.070;8.436;2022-09-21T22:12:12;100836.81;;;10.49;69.41
40730;BME280;26418;50.070;8.436;2022-09-21T22:14:38;100861.69;;;10.57;69.49
40730;BME280;26418;50.070;8.436;2022-09-21T22:17:03;100856.59;;;10.50;69.78
40730;BME280;26418;50.070;8.436;2022-09-21T22:19:29;100840.94;;;10.36;70.11